Time;durP1;ratioP1;P1;durP2;ratioP2;P2;SDS_P1;SDS_P2;PMS_P1;PMS_P2;Temp;Humidity;BMP_temperature;BMP_pressure;BME280_temperature;BME280_humidity;BME280_pressure;Samples;Min_cycle;Max_cycle;Signal;HPM_P1;HPM_P2
2022/08/04 00:00:19;;;;;;;4.07;1.10;;;23.00;59.50;;;;;;4815233;29;20062;-76
2022/08/04 00:03:01;;;;;;;3.17;1.27;;;23.00;59.50;;;;;;4813130;29;20073;-76
2022/08/04 00:05:45;;;;;;;1.95;1.05;;;23.00;59.60;;;;;;4811915;29;20344;-76
2022/08/04 00:08:29;;;;;;;3.83;1.80;;;22.90;59.50;;;;;;4814529;29;20047;-75
2022/08/04 00:10:58;;;;;;;3.25;1.00;;;22.90;59.50;;;;;;4813191;29;20133;-76
2022/08/04 00:13:26;;;;;;;6.40;1.70;;;22.90;59.60;;;;;;4813915;29;20062;-76
2022/08/04 00:15:57;;;;;;;3.85;1.30;;;22.80;59.40;;;;;;4798556;29;20027;-75
2022/08/04 00:18:33;;;;;;;3.78;1.42;;;22.80;59.50;;;;;;4814319;29;20325;-76
2022/08/04 00:21:03;;;;;;;4.43;1.73;;;22.70;59.50;;;;;;4813823;29;20037;-77
2022/08/04 00:23:32;;;;;;;3.47;1.40;;;22.70;59.50;;;;;;4812484;29;20069;-77
2022/08/04 00:25:58;;;;;;;5.18;2.03;;;22.60;59.40;;;;;;4813809;29;20374;-76
2022/08/04 00:28:25;;;;;;;3.60;1.55;;;22.50;59.30;;;;;;4807285;29;20436;-77
2022/08/04 00:30:52;;;;;;;3.83;1.60;;;22.50;59.40;;;;;;4814596;29;20187;-76
2022/08/04 00:33:19;;;;;;;4.30;1.35;;;22.50;59.50;;;;;;4811363;29;20026;-76
2022/08/04 00:35:47;;;;;;;3.03;1.58;;;22.40;59.40;;;;;;4814612;29;20042;-75
2022/08/04 00:38:18;;;;;;;3.65;1.48;;;22.30;59.30;;;;;;4814002;29;20470;-76
2022/08/04 00:41:05;;;;;;;3.85;1.40;;;22.30;59.40;;;;;;4811688;29;20041;-76
2022/08/04 00:43:43;;;;;;;4.13;1.63;;;22.30;59.50;;;;;;4814303;29;20053;-76
2022/08/04 00:46:24;;;;;;;3.22;1.10;;;22.20;59.40;;;;;;4813150;29;20361;-76
2022/08/04 00:49:02;;;;;;;2.97;1.65;;;22.20;59.50;;;;;;4809691;29;20049;-76
2022/08/04 00:51:41;;;;;;;4.40;1.20;;;22.10;59.40;;;;;;4813927;29;20030;-75
2022/08/04 00:54:16;;;;;;;3.00;1.75;;;22.00;59.30;;;;;;4814034;29;20034;-76
2022/08/04 00:57:01;;;;;;;3.80;1.60;;;22.00;59.40;;;;;;4813760;29;20038;-75
2022/08/04 00:59:29;;;;;;;5.32;1.58;;;22.00;59.50;;;;;;4806842;29;20445;-75
2022/08/04 01:02:18;;;;;;;4.13;2.03;;;21.90;59.40;;;;;;4812695;29;20041;-75
2022/08/04 01:04:56;;;;;;;3.50;1.60;;;21.90;59.50;;;;;;4816100;29;20475;-76
2022/08/04 01:07:41;;;;;;;2.63;1.13;;;21.80;59.40;;;;;;4813725;29;20043;-76
2022/08/04 01:10:43;;;;;;;5.05;2.00;;;21.70;59.40;;;;;;4812782;29;20520;-75
2022/08/04 01:13:18;;;;;;;3.30;1.95;;;21.70;59.50;;;;;;4812216;29;20493;-75
2022/08/04 01:15:56;;;;;;;4.43;1.58;;;21.70;59.50;;;;;;4812896;29;20047;-76
2022/08/04 01:18:45;;;;;;;7.07;2.78;;;21.60;59.40;;;;;;4813571;29;20094;-76
2022/08/04 01:21:28;;;;;;;5.20;1.70;;;21.50;59.40;;;;;;4810597;29;20694;-76
2022/08/04 01:24:16;;;;;;;4.57;1.55;;;21.50;59.50;;;;;;4812926;29;20036;-76
2022/08/04 01:27:02;;;;;;;3.78;1.10;;;21.40;59.40;;;;;;4814075;29;20035;-75
2022/08/04 01:29:45;;;;;;;3.78;1.65;;;21.40;59.50;;;;;;4813748;29;20103;-76
2022/08/04 01:32:35;;;;;;;5.18;1.80;;;21.30;59.40;;;;;;4806607;29;20098;-76
2022/08/04 01:35:27;;;;;;;2.58;1.23;;;21.30;59.40;;;;;;4797933;29;20069;-75
2022/08/04 01:38:18;;;;;;;3.55;1.83;;;21.20;59.30;;;;;;4819700;29;20054;-75
2022/08/04 01:40:45;;;;;;;3.20;1.45;;;21.20;59.40;;;;;;4826056;29;20760;-76
2022/08/04 01:43:13;;;;;;;3.03;1.13;;;21.20;59.40;;;;;;4822224;29;20032;-76
2022/08/04 01:45:40;;;;;;;3.75;1.52;;;21.10;59.40;;;;;;4825426;29;20046;-76
2022/08/04 01:48:07;;;;;;;3.47;1.50;;;21.10;60.10;;;;;;4819231;29;20041;-74
2022/08/04 01:50:34;;;;;;;5.85;1.73;;;21.00;59.30;;;;;;4815450;29;20035;-75
2022/08/04 01:53:02;;;;;;;2.85;1.33;;;20.90;59.30;;;;;;4815946;29;20039;-75
2022/08/04 01:55:28;;;;;;;3.72;1.50;;;20.90;59.30;;;;;;4815547;29;20130;-75
2022/08/04 01:57:59;;;;;;;4.28;2.17;;;20.90;59.50;;;;;;4815496;29;20133;-74
2022/08/04 02:00:27;;;;;;;5.93;1.75;;;20.80;59.40;;;;;;4795056;29;20034;-75
2022/08/04 02:02:55;;;;;;;4.13;1.33;;;20.80;59.40;;;;;;4817032;29;20027;-75
2022/08/04 02:05:24;;;;;;;3.75;1.42;;;20.70;59.40;;;;;;4818766;29;20038;-75
2022/08/04 02:08:20;;;;;;;2.55;1.25;;;20.70;59.50;;;;;;4816144;29;20117;-76
2022/08/04 02:11:12;;;;;;;6.00;1.38;;;20.70;59.60;;;;;;4816733;29;20105;-74
2022/08/04 02:13:50;;;;;;;4.60;1.90;;;20.60;59.40;;;;;;4816802;29;20389;-75
2022/08/04 02:16:32;;;;;;;2.28;1.30;;;20.50;59.30;;;;;;4817411;29;20629;-74
2022/08/04 02:19:21;;;;;;;4.15;1.30;;;20.50;59.40;;;;;;4817551;29;20114;-74
2022/08/04 02:21:55;;;;;;;5.25;1.58;;;20.40;59.30;;;;;;4818205;29;20035;-74
2022/08/04 02:24:26;;;;;;;3.38;1.30;;;20.40;59.40;;;;;;4818831;29;20034;-78
2022/08/04 02:26:55;;;;;;;5.15;1.58;;;20.40;59.40;;;;;;4818380;29;20031;-74
2022/08/04 02:29:39;;;;;;;4.95;1.45;;;20.30;59.90;;;;;;4818977;29;20125;-76
2022/08/04 02:32:14;;;;;;;4.15;1.90;;;20.30;59.50;;;;;;4811009;29;20045;-77
2022/08/04 02:34:55;;;;;;;3.50;1.25;;;20.30;59.50;;;;;;4816940;29;20390;-77
2022/08/04 02:37:23;;;;;;;4.55;1.60;;;20.20;59.40;;;;;;4817861;29;20055;-76
2022/08/04 02:39:52;;;;;;;4.35;1.55;;;20.20;59.50;;;;;;4817244;29;20124;-77
2022/08/04 02:42:19;;;;;;;5.28;1.83;;;20.20;59.50;;;;;;4799646;29;20075;-76
2022/08/04 02:44:50;;;;;;;4.93;1.50;;;20.20;59.60;;;;;;4817260;29;20639;-77
2022/08/04 02:47:20;;;;;;;4.40;1.75;;;20.20;59.70;;;;;;4813916;29;20133;-76
2022/08/04 02:49:49;;;;;;;3.65;1.65;;;20.10;59.50;;;;;;4814366;29;20034;-76
2022/08/04 02:52:17;;;;;;;4.68;2.08;;;20.10;59.60;;;;;;4817288;29;20683;-76
2022/08/04 02:54:44;;;;;;;5.07;1.60;;;20.10;59.60;;;;;;4818503;29;20053;-77
2022/08/04 02:57:14;;;;;;;2.33;1.60;;;20.10;59.70;;;;;;4817274;29;20109;-76
2022/08/04 02:59:58;;;;;;;8.10;2.63;;;20.00;59.60;;;;;;4817391;29;20034;-76
2022/08/04 03:02:40;;;;;;;4.40;1.83;;;20.00;59.70;;;;;;4811032;29;20069;-77
2022/08/04 03:05:18;;;;;;;3.35;1.55;;;20.00;59.80;;;;;;4800517;29;20109;-77
2022/08/04 03:08:02;;;;;;;3.75;1.88;;;19.90;59.60;;;;;;4817545;29;20095;-75
2022/08/04 03:11:00;;;;;;;5.18;1.83;;;19.90;59.70;;;;;;4817778;29;20091;-76
2022/08/04 03:13:32;;;;;;;5.50;2.05;;;19.80;59.60;;;;;;4807791;29;20037;-76
2022/08/04 03:16:19;;;;;;;4.17;1.30;;;19.80;59.70;;;;;;4815599;29;20035;-76
2022/08/04 03:19:24;;;;;;;5.32;1.90;;;19.80;59.70;;;;;;4812845;29;20411;-76
2022/08/04 03:22:14;;;;;;;6.32;1.73;;;19.70;59.60;;;;;;4792599;29;20126;-76
2022/08/04 03:24:56;;;;;;;3.80;1.55;;;19.70;59.70;;;;;;4815113;29;20311;-76
2022/08/04 03:27:51;;;;;;;5.70;1.13;;;19.60;59.60;;;;;;4812792;29;20165;-76
2022/08/04 03:30:48;;;;;;;3.00;1.45;;;19.60;59.70;;;;;;4816357;29;20398;-76
2022/08/04 03:33:39;;;;;;;6.45;2.40;;;19.50;59.60;;;;;;4812052;29;20539;-76
2022/08/04 03:36:33;;;;;;;4.05;1.58;;;19.50;59.70;;;;;;4817593;29;20170;-76
2022/08/04 03:39:32;;;;;;;2.88;1.60;;;19.40;59.60;;;;;;4816192;29;20127;-76
2022/08/04 03:42:28;;;;;;;4.60;1.50;;;19.40;59.70;;;;;;4815468;29;20042;-76
2022/08/04 03:45:16;;;;;;;2.40;1.60;;;19.40;59.80;;;;;;4817164;29;20513;-75
2022/08/04 03:47:59;;;;;;;5.38;1.95;;;19.30;59.70;;;;;;4816190;29;20134;-76
2022/08/04 03:53:07;;;;;;;2.80;1.23;;;19.30;59.70;;;;;;4819882;29;20049;-76
2022/08/04 03:53:46;;;;;;;6.82;2.20;;;19.30;59.80;;;;;;4800271;29;20026;-76
2022/08/04 03:56:27;;;;;;;5.15;2.35;;;19.30;59.90;;;;;;4815584;29;20401;-76
2022/08/04 03:59:18;;;;;;;3.97;1.92;;;19.20;59.80;;;;;;4815340;29;20030;-76
2022/08/04 04:02:09;;;;;;;2.55;1.52;;;19.20;59.80;;;;;;4813844;29;20030;-76
2022/08/04 04:05:13;;;;;;;6.32;1.55;;;19.10;59.80;;;;;;4811559;29;20408;-76
2022/08/04 04:08:15;;;;;;;5.10;2.03;;;19.10;59.80;;;;;;4815322;29;20496;-76
2022/08/04 04:10:41;;;;;;;3.58;1.17;;;19.10;59.90;;;;;;4816919;29;20058;-76
2022/08/04 04:13:38;;;;;;;3.50;1.48;;;19.00;59.70;;;;;;4815163;29;20090;-76
2022/08/04 04:16:19;;;;;;;4.18;1.75;;;19.00;59.80;;;;;;4816424;29;20045;-76
2022/08/04 04:18:48;;;;;;;4.20;1.63;;;19.00;59.90;;;;;;4814689;29;20038;-76
2022/08/04 04:21:55;;;;;;;4.68;1.50;;;19.00;60.00;;;;;;4813719;29;20126;-75
2022/08/04 04:24:56;;;;;;;5.20;2.28;;;18.90;60.00;;;;;;4816182;29;20034;-76
2022/08/04 04:27:30;;;;;;;5.03;1.60;;;18.90;60.00;;;;;;4814513;29;20035;-76
2022/08/04 04:30:02;;;;;;;4.40;1.92;;;18.90;60.00;;;;;;4815437;29;20045;-76
2022/08/04 04:33:06;;;;;;;3.50;1.70;;;18.80;59.90;;;;;;4814552;29;20075;-76
2022/08/04 04:36:18;;;;;;;3.95;1.67;;;18.80;60.10;;;;;;4809091;29;20560;-76
2022/08/04 04:39:09;;;;;;;6.55;2.17;;;18.80;60.10;;;;;;4813680;29;20066;-76
2022/08/04 04:41:53;;;;;;;4.72;1.60;;;18.80;60.10;;;;;;4799802;29;20045;-76
2022/08/04 04:44:50;;;;;;;3.42;1.67;;;18.80;60.10;;;;;;4799741;29;20034;-76
2022/08/04 04:47:26;;;;;;;2.60;1.48;;;18.80;60.20;;;;;;4812266;29;20041;-75
2022/08/04 04:50:38;;;;;;;6.28;1.80;;;18.70;60.10;;;;;;4812564;29;20054;-76
2022/08/04 04:53:39;;;;;;;2.92;1.58;;;18.70;60.20;;;;;;4745616;30;20047;-76
2022/08/04 04:56:15;;;;;;;4.68;1.80;;;18.70;60.10;;;;;;4757812;30;20035;-76
2022/08/04 04:58:42;;;;;;;4.25;1.83;;;18.70;60.20;;;;;;4805656;29;20042;-76
2022/08/04 05:01:33;;;;;;;6.55;2.33;;;18.70;60.20;;;;;;4816559;29;20111;-76
2022/08/04 05:04:21;;;;;;;2.67;1.40;;;18.70;60.30;;;;;;4813506;29;20122;-76
2022/08/04 05:06:56;;;;;;;3.75;1.55;;;18.70;60.30;;;;;;4808789;29;20577;-76
2022/08/04 05:09:51;;;;;;;3.22;1.80;;;18.70;60.30;;;;;;4813560;29;20138;-76
2022/08/04 05:12:28;;;;;;;8.43;2.55;;;18.70;60.40;;;;;;4811168;29;20037;-77
2022/08/04 05:14:57;;;;;;;3.85;1.42;;;18.70;60.30;;;;;;4811325;29;20058;-77
2022/08/04 05:17:34;;;;;;;3.13;1.63;;;18.80;60.50;;;;;;4811862;29;20500;-76
2022/08/04 05:20:18;;;;;;;3.30;1.75;;;18.70;60.40;;;;;;4810522;29;20772;-76
2022/08/04 05:22:53;;;;;;;2.85;1.77;;;18.70;60.30;;;;;;4811141;29;20041;-76
2022/08/04 05:25:30;;;;;;;3.45;1.95;;;18.80;60.50;;;;;;4792282;29;20038;-76
2022/08/04 05:28:05;;;;;;;4.25;1.83;;;18.80;60.50;;;;;;4809814;29;20043;-76
2022/08/04 05:30:35;;;;;;;3.63;1.75;;;18.80;60.50;;;;;;4795936;29;20121;-75
2022/08/04 05:33:06;;;;;;;4.65;2.08;;;18.90;60.50;;;;;;4812195;29;20072;-76
2022/08/04 05:35:57;;;;;;;3.40;1.85;;;19.00;60.70;;;;;;4810575;29;20030;-75
2022/08/04 05:38:28;;;;;;;4.25;1.90;;;19.00;60.70;;;;;;4813374;29;20521;-75
2022/08/04 05:40:55;;;;;;;4.82;1.83;;;19.10;60.70;;;;;;4813934;29;20042;-76
2022/08/04 05:43:23;;;;;;;2.88;1.50;;;19.20;60.70;;;;;;4813265;29;20038;-76
2022/08/04 05:45:50;;;;;;;5.13;1.90;;;19.30;60.90;;;;;;4813481;29;20060;-76
2022/08/04 05:48:16;;;;;;;3.42;1.75;;;19.30;60.70;;;;;;4809742;29;20046;-77
2022/08/04 05:50:44;;;;;;;5.75;2.70;;;19.40;61.00;;;;;;4817626;29;20038;-76
2022/08/04 05:53:13;;;;;;;5.40;2.70;;;19.50;61.70;;;;;;4813038;29;20064;-75
2022/08/04 05:55:39;;;;;;;6.68;2.80;;;19.60;62.60;;;;;;4815212;29;20033;-76
2022/08/04 05:58:06;;;;;;;4.82;2.63;;;19.80;63.50;;;;;;4802288;29;20034;-78
2022/08/04 06:00:33;;;;;;;6.78;1.90;;;20.00;64.20;;;;;;4817085;29;20311;-82
2022/08/04 06:03:00;;;;;;;4.97;2.55;;;20.20;64.80;;;;;;4812970;29;20042;-78
2022/08/04 06:05:27;;;;;;;3.97;1.85;;;20.30;65.40;;;;;;4816965;29;20045;-78
2022/08/04 06:07:53;;;;;;;4.65;1.95;;;20.50;65.60;;;;;;4808670;29;20039;-78
2022/08/04 06:10:20;;;;;;;4.40;2.08;;;20.60;65.70;;;;;;4817312;29;20050;-78
2022/08/04 06:12:54;;;;;;;4.50;2.33;;;20.80;66.20;;;;;;4814173;29;20455;-78
2022/08/04 06:15:23;;;;;;;4.05;1.85;;;21.00;66.70;;;;;;4784906;29;20129;-83
2022/08/04 06:17:54;;;;;;;6.30;2.95;;;21.10;66.50;;;;;;4810869;29;20072;-82
2022/08/04 06:20:22;;;;;;;4.03;1.90;;;21.30;66.70;;;;;;4817339;29;20053;-80
2022/08/04 06:22:54;;;;;;;6.15;2.05;;;21.50;66.80;;;;;;4817793;29;20031;-82
2022/08/04 06:25:27;;;;;;;6.13;2.55;;;21.70;67.10;;;;;;4817097;29;20050;-80
2022/08/04 06:27:54;;;;;;;3.42;1.70;;;21.80;67.10;;;;;;4816407;29;20042;-81
2022/08/04 06:30:25;;;;;;;4.88;2.00;;;21.90;67.00;;;;;;4800127;29;20040;-83
2022/08/04 06:32:55;;;;;;;7.07;2.25;;;21.90;66.80;;;;;;4819194;29;20619;-90
2022/08/04 06:35:23;;;;;;;9.15;2.80;;;22.00;66.80;;;;;;4820922;29;20091;-86
2022/08/04 06:37:51;;;;;;;7.13;2.17;;;22.10;67.00;;;;;;4821177;29;20061;-84
2022/08/04 06:40:19;;;;;;;6.13;2.30;;;22.10;67.00;;;;;;4813194;29;20030;-83
2022/08/04 06:42:46;;;;;;;4.47;2.25;;;22.20;67.10;;;;;;4839615;29;20023;-82
2022/08/04 06:45:14;;;;;;;4.55;1.92;;;22.30;67.30;;;;;;4839831;29;20022;-83
2022/08/04 06:47:42;;;;;;;5.20;2.25;;;22.30;67.30;;;;;;4839915;29;20015;-84
2022/08/04 06:50:09;;;;;;;8.05;2.50;;;22.30;67.40;;;;;;4825953;29;20318;-84
2022/08/04 06:52:36;;;;;;;4.90;1.90;;;22.30;67.40;;;;;;4817029;29;20540;-84
2022/08/04 06:55:03;;;;;;;7.07;2.72;;;22.30;67.40;;;;;;4816339;29;20225;-82
2022/08/04 06:57:31;;;;;;;3.30;1.85;;;22.30;67.50;;;;;;4812201;29;20604;-84
2022/08/04 07:00:10;;;;;;;6.28;2.00;;;22.40;67.70;;;;;;4813860;29;20026;-81
2022/08/04 07:02:44;;;;;;;5.15;2.40;;;22.40;67.70;;;;;;4812377;29;20046;-79
2022/08/04 07:05:11;;;;;;;4.35;2.17;;;22.40;67.60;;;;;;4815730;29;20512;-78
2022/08/04 07:07:39;;;;;;;3.03;2.20;;;22.50;67.60;;;;;;4815012;29;20037;-77
2022/08/04 07:10:05;;;;;;;6.00;2.28;;;22.60;67.50;;;;;;4816486;29;20053;-77
2022/08/04 07:12:33;;;;;;;5.53;1.90;;;22.90;67.70;;;;;;4809609;29;20138;-79
2022/08/04 07:14:59;;;;;;;5.60;2.05;;;23.20;67.30;;;;;;4799007;29;20046;-78
2022/08/04 07:17:27;;;;;;;2.85;1.42;;;23.50;67.00;;;;;;4813721;29;20066;-78
2022/08/04 07:19:53;;;;;;;4.88;2.22;;;23.80;66.50;;;;;;4814973;29;20061;-84
2022/08/04 07:22:19;;;;;;;4.20;1.40;;;24.10;66.20;;;;;;4813899;29;20058;-81
2022/08/04 07:24:45;;;;;;;5.25;2.33;;;24.50;65.80;;;;;;4815212;29;20559;-82
2022/08/04 07:27:11;;;;;;;4.18;2.15;;;24.90;65.50;;;;;;4814285;29;20158;-79
2022/08/04 07:29:38;;;;;;;6.25;2.10;;;25.30;64.80;;;;;;4815267;29;20485;-82
2022/08/04 07:32:05;;;;;;;3.85;2.08;;;25.60;63.90;;;;;;4813847;29;20434;-83
2022/08/04 07:34:32;;;;;;;3.70;1.50;;;25.90;63.20;;;;;;4815126;29;20501;-83
2022/08/04 07:36:59;;;;;;;3.03;1.60;;;26.10;62.40;;;;;;4798596;29;20146;-82
2022/08/04 07:39:28;;;;;;;3.47;1.90;;;26.20;61.90;;;;;;4798042;29;20034;-83
2022/08/04 07:41:55;;;;;;;4.00;1.88;;;26.20;61.60;;;;;;4797878;29;20039;-82
2022/08/04 07:44:21;;;;;;;2.42;1.30;;;26.20;61.30;;;;;;4814088;29;20554;-83
2022/08/04 07:46:47;;;;;;;3.60;1.50;;;26.20;61.00;;;;;;4814420;29;20031;-83
2022/08/04 07:49:14;;;;;;;2.92;1.88;;;26.30;60.80;;;;;;4797904;29;20050;-79
2022/08/04 07:51:40;;;;;;;12.35;2.03;;;26.30;60.50;;;;;;4814320;29;20032;-79
2022/08/04 07:54:09;;;;;;;2.38;1.15;;;26.50;60.30;;;;;;4813384;29;20050;-78
2022/08/04 07:56:37;;;;;;;2.70;1.33;;;26.70;60.10;;;;;;4813931;29;20518;-79
2022/08/04 07:59:03;;;;;;;2.92;1.65;;;26.90;59.80;;;;;;4810670;29;20108;-78
2022/08/04 08:01:30;;;;;;;3.58;1.55;;;27.20;59.50;;;;;;4813614;29;20081;-81
2022/08/04 08:03:57;;;;;;;1.58;1.35;;;27.40;58.90;;;;;;4813267;29;20042;-81
2022/08/04 08:06:24;;;;;;;2.90;1.15;;;27.70;58.50;;;;;;4814845;29;20077;-81
2022/08/04 08:08:50;;;;;;;3.17;1.17;;;27.80;58.00;;;;;;4814923;29;20042;-81
2022/08/04 08:11:18;;;;;;;2.42;1.10;;;28.10;57.70;;;;;;4814572;29;20176;-81
2022/08/04 08:13:44;;;;;;;2.00;1.10;;;28.30;57.20;;;;;;4812428;29;20058;-83
2022/08/04 08:16:10;;;;;;;2.45;0.88;;;28.50;56.80;;;;;;4814458;29;20026;-81
2022/08/04 08:18:36;;;;;;;3.10;0.95;;;28.60;55.70;;;;;;4796041;29;20045;-79
2022/08/04 08:21:03;;;;;;;3.67;0.52;;;28.60;54.50;;;;;;4815252;29;20066;-83
2022/08/04 08:23:33;;;;;;;3.40;0.63;;;28.40;53.50;;;;;;4812615;29;20038;-80
2022/08/04 08:25:59;;;;;;;2.10;0.45;;;28.20;52.80;;;;;;4813255;29;20057;-80
2022/08/04 08:28:25;;;;;;;4.68;0.70;;;28.00;52.30;;;;;;4813951;29;20041;-82
2022/08/04 08:30:51;;;;;;;1.42;0.68;;;27.70;52.10;;;;;;4798335;29;20038;-81
2022/08/04 08:33:19;;;;;;;2.50;0.63;;;27.40;51.90;;;;;;4796538;29;20041;-79
2022/08/04 08:35:55;;;;;;;1.33;0.60;;;27.20;51.90;;;;;;4811996;29;20111;-78
2022/08/04 08:38:36;;;;;;;0.90;0.52;;;27.00;51.60;;;;;;4810943;29;20454;-80
2022/08/04 08:41:29;;;;;;;1.75;0.60;;;26.80;51.60;;;;;;4813722;29;20449;-79
2022/08/04 08:44:24;;;;;;;1.70;0.68;;;26.70;51.30;;;;;;4797028;29;20088;-82
2022/08/04 08:46:56;;;;;;;4.65;1.10;;;26.50;50.80;;;;;;4797051;29;20038;-79
2022/08/04 08:50:09;;;;;;;1.33;0.50;;;26.30;51.10;;;;;;4813157;29;20660;-81
2022/08/04 08:53:11;;;;;;;1.45;0.40;;;26.20;50.70;;;;;;4766997;29;20062;-80
2022/08/04 08:56:10;;;;;;;2.13;0.75;;;26.10;50.80;;;;;;4769009;29;20047;-78
2022/08/04 08:59:00;;;;;;;2.20;0.60;;;26.00;50.90;;;;;;4812879;29;20158;-78
2022/08/04 09:02:09;;;;;;;2.22;0.77;;;25.90;50.90;;;;;;4813465;29;20084;-80
2022/08/04 09:05:01;;;;;;;0.95;0.50;;;25.90;50.30;;;;;;4813280;29;20030;-80
2022/08/04 09:07:47;;;;;;;1.20;0.68;;;25.80;50.30;;;;;;4811576;29;20042;-79
2022/08/04 09:10:43;;;;;;;2.88;0.93;;;25.80;50.20;;;;;;4813561;29;20053;-80
2022/08/04 09:13:29;;;;;;;2.83;0.90;;;25.80;50.10;;;;;;4811483;29;20145;-80
2022/08/04 09:16:06;;;;;;;2.78;0.77;;;25.80;50.20;;;;;;4814430;29;20096;-80
2022/08/04 09:18:42;;;;;;;4.03;0.80;;;25.80;49.90;;;;;;4793847;29;20045;-82
2022/08/04 09:21:22;;;;;;;2.95;0.60;;;25.80;49.50;;;;;;4811241;29;20343;-79
2022/08/04 09:24:17;;;;;;;1.38;0.45;;;25.80;49.30;;;;;;4812156;29;20057;-79
2022/08/04 09:26:55;;;;;;;1.15;0.70;;;25.80;48.90;;;;;;4793660;29;20416;-79
2022/08/04 09:29:48;;;;;;;2.85;0.70;;;25.80;49.00;;;;;;4814386;29;20046;-79
2022/08/04 09:32:31;;;;;;;2.58;0.80;;;25.80;48.70;;;;;;4812693;29;20117;-78
2022/08/04 09:35:25;;;;;;;2.20;0.60;;;25.80;48.60;;;;;;4812841;29;20038;-78
2022/08/04 09:37:51;;;;;;;8.50;1.35;;;25.80;48.50;;;;;;4813116;29;20054;-79
2022/08/04 09:40:24;;;;;;;3.13;0.50;;;25.80;48.70;;;;;;4812546;29;20041;-79
2022/08/04 09:42:53;;;;;;;2.42;0.82;;;25.80;48.50;;;;;;4795492;29;20031;-79
2022/08/04 09:45:47;;;;;;;0.60;0.30;;;25.80;48.30;;;;;;4813772;29;20038;-83
2022/08/04 09:48:40;;;;;;;2.22;1.02;;;25.80;47.90;;;;;;4795840;29;20045;-82
2022/08/04 09:51:22;;;;;;;2.83;0.80;;;25.80;47.90;;;;;;4812831;29;20041;-84
2022/08/04 09:54:02;;;;;;;3.13;0.70;;;25.90;48.00;;;;;;4812953;29;20514;-80
2022/08/04 09:56:40;;;;;;;2.25;0.80;;;25.90;47.70;;;;;;4812832;29;20038;-80
2022/08/04 09:59:09;;;;;;;2.72;0.98;;;26.00;47.70;;;;;;4812249;29;20040;-81
2022/08/04 10:01:37;;;;;;;1.17;1.08;;;26.10;47.70;;;;;;4796703;29;20038;-82
2022/08/04 10:04:08;;;;;;;4.88;0.95;;;26.10;47.50;;;;;;4779675;29;20141;-83
2022/08/04 10:07:08;;;;;;;5.95;1.38;;;26.10;47.30;;;;;;4795497;29;20179;-81
2022/08/04 10:10:16;;;;;;;1.77;0.93;;;26.20;47.10;;;;;;4810796;29;20043;-83
2022/08/04 10:13:08;;;;;;;1.88;0.70;;;26.10;47.20;;;;;;4747452;30;20134;-82
2022/08/04 10:15:49;;;;;;;1.98;0.73;;;26.10;47.10;;;;;;4750181;30;20040;-81
2022/08/04 10:18:36;;;;;;;2.90;0.60;;;26.00;47.10;;;;;;4793403;29;20038;-80
2022/08/04 10:21:30;;;;;;;3.67;1.05;;;26.00;46.90;;;;;;4799240;29;20030;-81
2022/08/04 10:24:13;;;;;;;3.13;1.25;;;25.90;46.90;;;;;;4815253;29;20342;-80
2022/08/04 10:26:58;;;;;;;2.75;0.98;;;25.80;46.90;;;;;;4799212;29;20371;-80
2022/08/04 10:29:36;;;;;;;1.67;0.73;;;25.70;47.00;;;;;;4815795;29;20057;-79
2022/08/04 10:32:14;;;;;;;2.85;0.80;;;25.60;47.40;;;;;;4814120;29;20034;-79
2022/08/04 10:34:52;;;;;;;3.63;0.88;;;25.50;47.60;;;;;;4800182;29;20288;-79
2022/08/04 10:37:23;;;;;;;2.83;1.25;;;25.50;47.70;;;;;;4813504;29;20398;-82
2022/08/04 10:42:55;;;;;;;2.53;0.98;;;25.50;47.60;;;;;;4815433;29;20030;-81
2022/08/04 10:45:26;;;;;;;2.35;0.90;;;25.60;47.70;;;;;;4815045;29;20113;-81
2022/08/04 10:48:25;;;;;;;3.95;1.02;;;25.60;47.70;;;;;;4815680;29;20039;-83
2022/08/04 10:51:30;;;;;;;1.48;0.70;;;25.70;47.60;;;;;;4814727;29;20276;-81
2022/08/04 10:54:01;;;;;;;2.25;0.90;;;25.80;47.50;;;;;;4816050;29;20096;-82
2022/08/04 10:56:32;;;;;;;5.43;1.40;;;25.80;47.50;;;;;;4799489;29;20031;-82
2022/08/04 10:59:17;;;;;;;3.97;1.00;;;25.90;47.30;;;;;;4816103;29;20062;-82
2022/08/04 11:01:46;;;;;;;2.78;0.75;;;25.90;47.10;;;;;;4814319;29;20034;-79
2022/08/04 11:04:24;;;;;;;1.45;0.77;;;25.80;47.20;;;;;;4815252;29;20034;-79
2022/08/04 11:06:51;;;;;;;3.38;0.98;;;25.70;47.10;;;;;;4814141;29;20034;-79
2022/08/04 11:09:19;;;;;;;4.50;1.15;;;25.60;47.20;;;;;;4801233;29;20046;-80
2022/08/04 11:11:53;;;;;;;3.42;1.08;;;25.60;47.10;;;;;;4814833;29;20485;-82
2022/08/04 11:14:25;;;;;;;5.15;0.77;;;25.50;47.00;;;;;;4814609;29;20023;-82
2022/08/04 11:17:06;;;;;;;4.20;0.73;;;25.50;47.70;;;;;;4814608;29;20022;-81
2022/08/04 11:19:40;;;;;;;3.30;0.85;;;25.60;47.00;;;;;;4812169;29;20126;-81
2022/08/04 11:22:23;;;;;;;3.25;0.98;;;25.80;46.90;;;;;;4813177;29;20084;-80
2022/08/04 11:25:16;;;;;;;2.30;0.93;;;25.90;46.40;;;;;;4815487;29;20506;-82
2022/08/04 11:27:48;;;;;;;;;;;26.00;46.20;;;;;;4797562;29;20117;-83
2022/08/04 11:30:16;;;;;;;5.05;0.90;;;26.20;46.20;;;;;;4815087;29;20443;-81
2022/08/04 11:33:23;;;;;;;3.13;0.70;;;26.30;46.10;;;;;;4814475;29;20083;-82
2022/08/04 11:36:15;;;;;;;3.47;0.60;;;26.40;45.60;;;;;;4792002;29;20038;-82
2022/08/04 11:39:01;;;;;;;2.05;0.52;;;26.40;45.40;;;;;;4813076;29;20050;-81
2022/08/04 11:42:00;;;;;;;3.00;1.05;;;26.30;45.10;;;;;;4815619;29;20037;-83
2022/08/04 11:44:49;;;;;;;1.20;0.40;;;26.40;44.80;;;;;;4774305;29;20498;-83
2022/08/04 11:47:26;;;;;;;1.45;0.50;;;26.40;44.80;;;;;;4814348;29;20038;-82
2022/08/04 11:50:16;;;;;;;1.08;0.32;;;26.50;44.60;;;;;;4814396;29;20043;-83
2022/08/04 11:52:44;;;;;;;1.05;0.40;;;26.80;44.10;;;;;;4814972;29;20119;-83
2022/08/04 11:55:13;;;;;;;3.47;0.73;;;27.00;43.70;;;;;;4814781;29;20026;-84
2022/08/04 11:57:40;;;;;;;2.13;0.60;;;27.10;43.20;;;;;;4797573;29;20022;-84
2022/08/04 12:00:11;;;;;;;0.75;0.30;;;27.30;42.90;;;;;;4815321;29;20034;-83
2022/08/04 12:03:05;;;;;;;1.65;0.52;;;27.50;42.50;;;;;;4813328;29;20511;-82
2022/08/04 12:05:40;;;;;;;5.53;0.98;;;27.70;41.90;;;;;;4814809;29;20133;-83
2022/08/04 12:08:32;;;;;;;2.33;0.43;;;27.80;41.90;;;;;;4815050;29;20077;-83
2022/08/04 12:11:09;;;;;;;1.63;0.70;;;27.80;41.20;;;;;;4790167;29;20133;-83
2022/08/04 12:13:56;;;;;;;1.42;0.45;;;27.90;41.20;;;;;;4816528;29;20065;-82
2022/08/04 12:16:36;;;;;;;1.27;0.75;;;28.00;41.00;;;;;;4798344;29;20105;-82
2022/08/04 12:19:08;;;;;;;3.60;0.90;;;28.10;40.80;;;;;;4813746;29;20674;-83
2022/08/04 12:21:43;;;;;;;3.58;0.80;;;28.20;40.90;;;;;;4797700;29;20334;-85
2022/08/04 12:24:22;;;;;;;1.05;0.52;;;28.30;40.60;;;;;;4798087;29;20441;-80
2022/08/04 12:26:55;;;;;;;1.13;0.40;;;28.50;40.30;;;;;;4797686;29;20239;-81
2022/08/04 12:29:24;;;;;;;1.27;0.28;;;28.60;40.20;;;;;;4796843;29;20038;-79
2022/08/04 12:31:55;;;;;;;1.13;0.95;;;28.80;40.20;;;;;;4796912;29;20457;-81
2022/08/04 12:34:53;;;;;;;1.33;0.40;;;28.90;39.80;;;;;;4805707;29;20110;-80
2022/08/04 12:37:39;;;;;;;1.55;0.40;;;29.00;39.60;;;;;;4808475;29;20519;-79
2022/08/04 12:40:13;;;;;;;1.42;0.57;;;29.00;39.70;;;;;;4813314;29;20137;-80
2022/08/04 12:42:52;;;;;;;0.93;0.40;;;29.00;39.60;;;;;;4811163;29;20261;-80
2022/08/04 12:45:19;;;;;;;3.70;0.65;;;29.20;39.30;;;;;;4813780;29;20418;-81
2022/08/04 12:47:46;;;;;;;0.85;0.40;;;29.20;39.20;;;;;;4813139;29;20047;-82
2022/08/04 12:50:13;;;;;;;0.95;0.52;;;29.40;39.10;;;;;;4811765;29;20042;-80
2022/08/04 12:52:47;;;;;;;1.25;0.45;;;29.40;38.70;;;;;;4797320;29;20181;-85
2022/08/04 12:55:14;;;;;;;3.20;0.80;;;29.60;38.40;;;;;;4813724;29;20108;-84
2022/08/04 12:57:42;;;;;;;1.73;0.73;;;29.70;38.30;;;;;;4813916;29;20030;-83
2022/08/04 13:00:09;;;;;;;1.45;0.50;;;29.80;38.10;;;;;;4814956;29;20081;-83
2022/08/04 13:02:42;;;;;;;3.40;1.08;;;30.00;37.90;;;;;;4812770;29;20074;-83
2022/08/04 13:05:12;;;;;;;4.18;1.15;;;30.10;37.50;;;;;;4814436;29;20038;-82
2022/08/04 13:07:42;;;;;;;2.47;0.50;;;30.30;37.40;;;;;;4814091;29;20121;-82
2022/08/04 13:10:16;;;;;;;1.48;0.40;;;30.40;37.10;;;;;;4798926;29;20070;-82
2022/08/04 13:12:59;;;;;;;1.58;0.60;;;30.50;36.80;;;;;;4813196;29;20117;-82
2022/08/04 13:15:27;;;;;;;1.92;0.68;;;30.70;36.60;;;;;;4813565;29;20023;-82
2022/08/04 13:17:58;;;;;;;2.40;0.63;;;30.90;36.70;;;;;;4813231;29;20030;-83
2022/08/04 13:20:30;;;;;;;2.47;0.45;;;30.90;36.30;;;;;;4797280;29;20545;-83
2022/08/04 13:23:09;;;;;;;0.47;0.32;;;31.00;36.30;;;;;;4811720;29;20466;-83
2022/08/04 13:25:40;;;;;;;1.98;0.40;;;31.00;36.20;;;;;;4797916;29;20516;-82
2022/08/04 13:28:35;;;;;;;2.60;0.55;;;31.00;36.20;;;;;;4797064;29;20630;-82
2022/08/04 13:31:05;;;;;;;1.75;0.68;;;31.00;36.00;;;;;;4812306;29;20054;-82
2022/08/04 13:33:37;;;;;;;1.63;0.60;;;31.10;36.20;;;;;;4813345;29;20037;-82
2022/08/04 13:36:06;;;;;;;1.73;0.30;;;31.20;36.10;;;;;;4813733;29;20022;-82
2022/08/04 13:38:33;;;;;;;0.88;0.40;;;31.30;36.10;;;;;;4812472;29;20065;-82
2022/08/04 13:41:03;;;;;;;1.63;0.43;;;31.50;36.00;;;;;;4813628;29;20092;-80
2022/08/04 13:43:52;;;;;;;0.98;0.60;;;31.70;35.90;;;;;;4796558;29;20062;-80